createdAt,value
2022-08-17T00:02:06.574Z,3.35
2022-08-17T00:04:51.076Z,3.40
2022-08-17T00:07:17.579Z,3.72
2022-08-17T00:09:44.050Z,3.20
2022-08-17T00:12:44.422Z,3.40
2022-08-17T00:14:57.191Z,3.47
2022-08-17T00:17:23.962Z,3.13
2022-08-17T00:19:50.420Z,3.85
2022-08-17T00:22:32.107Z,5.00
2022-08-17T00:25:05.363Z,3.38
2022-08-17T00:27:31.888Z,3.53
2022-08-17T00:29:58.372Z,3.80
2022-08-17T00:33:11.593Z,3.42
2022-08-17T00:35:14.319Z,3.90
2022-08-17T00:37:40.862Z,3.75
2022-08-17T00:40:10.149Z,3.13
2022-08-17T00:42:36.856Z,3.28
2022-08-17T00:45:06.399Z,3.22
2022-08-17T00:47:33.103Z,3.55
2022-08-17T00:50:00.215Z,3.70
2022-08-17T00:52:32.911Z,4.07
2022-08-17T00:55:00.015Z,3.30
2022-08-17T00:57:31.187Z,3.67
2022-08-17T01:00:03.752Z,3.30
2022-08-17T01:02:41.226Z,3.83
2022-08-17T01:05:14.836Z,3.28
2022-08-17T01:07:43.007Z,4.55
2022-08-17T01:10:59.042Z,4.10
2022-08-17T01:13:02.591Z,3.83
2022-08-17T01:15:31.180Z,3.50
2022-08-17T01:17:57.780Z,3.17
2022-08-17T01:20:24.322Z,4.10
2022-08-17T01:22:50.967Z,3.67
2022-08-17T01:25:19.346Z,3.10
2022-08-17T01:27:47.112Z,3.13
2022-08-17T01:30:58.658Z,3.88
2022-08-17T01:33:00.236Z,4.60
2022-08-17T01:35:26.872Z,3.47
2022-08-17T01:37:53.392Z,3.58
2022-08-17T01:40:33.612Z,3.65
2022-08-17T01:43:05.912Z,3.08
2022-08-17T01:45:33.912Z,3.65
2022-08-17T01:48:00.476Z,3.20
2022-08-17T01:50:31.388Z,3.30
2022-08-17T01:53:15.621Z,3.65
2022-08-17T01:55:49.200Z,3.47
2022-08-17T01:58:16.106Z,7.20
2022-08-17T02:00:47.123Z,4.10
2022-08-17T02:03:27.104Z,3.42
2022-08-17T02:05:53.812Z,4.00
2022-08-17T02:08:39.077Z,3.72
2022-08-17T02:11:12.073Z,3.30
2022-08-17T02:13:39.290Z,3.40
2022-08-17T02:16:06.256Z,4.30
2022-08-17T02:18:33.184Z,3.83
2022-08-17T02:21:00.011Z,3.30
2022-08-17T02:23:30.452Z,4.75
2022-08-17T02:25:59.377Z,3.47
2022-08-17T02:28:26.649Z,3.65
2022-08-17T02:31:02.002Z,3.40
2022-08-17T02:33:42.491Z,3.50
2022-08-17T02:36:11.721Z,4.40
2022-08-17T02:38:39.845Z,5.07
2022-08-17T02:41:06.644Z,4.22
2022-08-17T02:43:33.530Z,3.85
2022-08-17T02:46:00.163Z,3.72
2022-08-17T02:48:30.398Z,3.80
2022-08-17T02:50:59.331Z,3.47
2022-08-17T02:53:26.379Z,4.22
2022-08-17T02:55:53.376Z,4.32
2022-08-17T02:58:35.579Z,3.72
2022-08-17T03:01:05.264Z,4.20
2022-08-17T03:03:32.206Z,3.85
2022-08-17T03:05:58.708Z,3.78
2022-08-17T03:08:25.632Z,3.67
2022-08-17T03:10:52.836Z,5.30
2022-08-17T03:13:20.128Z,3.97
2022-08-17T03:15:48.543Z,4.43
2022-08-17T03:18:19.159Z,4.30
2022-08-17T03:20:54.981Z,3.83
2022-08-17T03:23:24.312Z,4.18
2022-08-17T03:25:53.650Z,3.72
2022-08-17T03:28:21.469Z,4.00
2022-08-17T03:30:48.042Z,3.70
2022-08-17T03:33:14.767Z,4.07
2022-08-17T03:35:42.143Z,3.65
2022-08-17T03:38:10.935Z,3.85
2022-08-17T03:40:57.676Z,4.82
2022-08-17T03:43:26.385Z,3.83
2022-08-17T03:46:28.943Z,4.30
2022-08-17T03:49:16.693Z,3.40
2022-08-17T03:52:02.005Z,3.83
2022-08-17T03:54:46.886Z,3.47
2022-08-17T03:57:13.472Z,3.72
2022-08-17T03:59:41.010Z,4.00
2022-08-17T04:02:23.211Z,3.78
2022-08-17T04:04:51.107Z,4.10
2022-08-17T04:07:22.791Z,4.00
2022-08-17T04:09:49.352Z,3.88
2022-08-17T04:12:18.375Z,3.60
2022-08-17T04:14:52.827Z,3.58
2022-08-17T04:17:27.876Z,4.27
2022-08-17T04:19:55.276Z,4.75
2022-08-17T04:22:31.291Z,4.10
2022-08-17T04:25:16.103Z,3.85
2022-08-17T04:27:42.639Z,3.80
2022-08-17T04:30:09.864Z,4.45
2022-08-17T04:33:04.253Z,3.60
2022-08-17T04:35:37.271Z,3.67
2022-08-17T04:38:04.221Z,4.50
2022-08-17T04:40:49.685Z,4.00
2022-08-17T04:43:19.766Z,4.05
2022-08-17T04:45:51.226Z,3.50
2022-08-17T04:48:22.409Z,4.10
2022-08-17T04:50:51.649Z,3.90
2022-08-17T04:53:19.515Z,3.78
2022-08-17T04:55:46.297Z,4.05
2022-08-17T04:58:12.857Z,3.47
2022-08-17T05:00:39.997Z,3.85
2022-08-17T05:03:06.661Z,5.57
2022-08-17T05:05:36.545Z,3.88
2022-08-17T05:08:05.530Z,3.67
2022-08-17T05:10:37.064Z,3.85
2022-08-17T05:13:17.492Z,4.32
2022-08-17T05:15:47.884Z,5.38
2022-08-17T05:18:15.692Z,4.82
2022-08-17T05:20:43.005Z,4.15
2022-08-17T05:23:12.351Z,4.88
2022-08-17T05:25:43.264Z,3.85
2022-08-17T05:28:14.426Z,4.80
2022-08-17T05:30:44.230Z,4.78
2022-08-17T05:33:14.209Z,4.50
2022-08-17T05:35:44.039Z,3.97
2022-08-17T05:38:11.347Z,3.97
2022-08-17T05:40:38.404Z,4.30
2022-08-17T05:43:11.658Z,4.40
2022-08-17T05:45:57.661Z,4.05
2022-08-17T05:48:39.602Z,4.43
2022-08-17T05:51:37.910Z,4.97
2022-08-17T05:54:16.545Z,3.78
2022-08-17T05:56:59.921Z,4.53
2022-08-17T05:59:30.568Z,4.75
2022-08-17T06:02:24.724Z,4.47
2022-08-17T06:05:17.841Z,4.32
2022-08-17T06:07:50.637Z,4.45
2022-08-17T06:10:28.334Z,4.43
2022-08-17T06:13:20.065Z,5.35
2022-08-17T06:16:04.583Z,4.97
2022-08-17T06:19:00.330Z,4.45
2022-08-17T06:21:32.818Z,4.75
2022-08-17T06:24:07.051Z,4.72
2022-08-17T06:26:43.059Z,5.30
2022-08-17T06:29:35.437Z,4.22
2022-08-17T06:32:03.192Z,5.65
2022-08-17T06:34:29.966Z,5.68
2022-08-17T06:37:06.304Z,5.03
2022-08-17T06:39:36.100Z,4.45
2022-08-17T06:43:02.753Z,5.00
2022-08-17T06:45:13.767Z,5.43
2022-08-17T06:48:00.709Z,8.18
2022-08-17T06:50:40.054Z,5.05
2022-08-17T06:53:34.731Z,4.50
2022-08-17T06:56:10.198Z,6.07
2022-08-17T06:58:40.251Z,4.38
2022-08-17T07:01:13.044Z,5.07
2022-08-17T07:03:57.570Z,4.70
2022-08-17T07:06:29.403Z,4.35
2022-08-17T07:09:02.319Z,4.63
2022-08-17T07:11:40.498Z,4.88
2022-08-17T07:14:48.391Z,4.65
2022-08-17T07:17:18.489Z,4.03
2022-08-17T07:19:47.793Z,3.95
2022-08-17T07:22:30.445Z,4.28
2022-08-17T07:25:18.746Z,4.10
2022-08-17T07:27:59.796Z,4.43
2022-08-17T07:30:44.644Z,4.60
2022-08-17T07:33:19.935Z,5.55
2022-08-17T07:35:48.428Z,4.70
2022-08-17T07:38:25.913Z,5.60
2022-08-17T07:40:57.914Z,4.32
2022-08-17T07:43:29.420Z,4.80
2022-08-17T07:46:14.856Z,4.85
2022-08-17T07:48:49.777Z,5.00
2022-08-17T07:51:22.039Z,4.57
2022-08-17T07:53:49.246Z,4.85
2022-08-17T07:56:50.888Z,5.60
2022-08-17T07:59:23.558Z,4.47
2022-08-17T08:01:57.694Z,4.78
2022-08-17T08:05:02.091Z,4.50
2022-08-17T08:07:58.282Z,4.38
2022-08-17T08:10:35.625Z,4.00
2022-08-17T08:13:20.571Z,4.50
2022-08-17T08:15:54.766Z,4.78
2022-08-17T08:18:53.831Z,4.40
2022-08-17T08:21:24.404Z,4.35
2022-08-17T08:24:09.770Z,4.85
2022-08-17T08:27:07.986Z,4.28
2022-08-17T08:29:53.231Z,4.40
2022-08-17T08:32:25.209Z,5.63
2022-08-17T08:35:48.270Z,3.95
2022-08-17T08:38:28.403Z,3.33
2022-08-17T08:41:04.135Z,5.10
2022-08-17T08:43:54.579Z,4.20
2022-08-17T08:46:46.063Z,3.97
2022-08-17T08:50:07.451Z,3.67
2022-08-17T08:52:49.564Z,3.20
2022-08-17T08:55:28.837Z,3.45
2022-08-17T08:58:00.795Z,3.88
2022-08-17T09:00:29.404Z,3.60
2022-08-17T09:03:03.208Z,3.60
2022-08-17T09:05:55.935Z,3.20
2022-08-17T09:08:31.900Z,3.78
2022-08-17T09:11:19.987Z,3.40
2022-08-17T09:14:21.223Z,3.30
2022-08-17T09:17:13.847Z,2.65
2022-08-17T09:19:48.357Z,2.67
2022-08-17T09:22:45.119Z,3.80
2022-08-17T09:25:23.496Z,2.70
2022-08-17T09:28:04.412Z,2.70
2022-08-17T09:30:51.538Z,3.55
2022-08-17T09:33:23.238Z,2.83
2022-08-17T09:35:55.744Z,2.75
2022-08-17T09:38:32.493Z,3.85
2022-08-17T09:40:59.281Z,3.20
2022-08-17T09:43:31.895Z,2.50
2022-08-17T09:46:09.278Z,2.85
2022-08-17T09:48:49.083Z,2.75
2022-08-17T09:51:25.137Z,7.63
2022-08-17T09:53:51.907Z,2.58
2022-08-17T09:57:28.473Z,3.20
2022-08-17T10:00:16.580Z,3.83
2022-08-17T10:03:03.122Z,2.60
2022-08-17T10:05:46.324Z,3.05
2022-08-17T10:08:13.266Z,2.40
2022-08-17T10:10:56.604Z,3.22
2022-08-17T10:13:32.435Z,2.83
2022-08-17T10:16:30.544Z,2.38
2022-08-17T10:18:59.694Z,2.80
2022-08-17T10:21:45.402Z,4.13
2022-08-17T10:24:39.764Z,2.60
2022-08-17T10:27:42.853Z,2.25
2022-08-17T10:30:11.194Z,2.53
2022-08-17T10:32:46.159Z,2.75
2022-08-17T10:35:42.939Z,2.38
2022-08-17T10:38:09.398Z,2.85
2022-08-17T10:40:45.463Z,2.50
2022-08-17T10:43:32.942Z,3.17
2022-08-17T10:46:31.687Z,2.50
2022-08-17T10:49:16.831Z,2.20
2022-08-17T10:51:46.015Z,2.33
2022-08-17T10:54:24.756Z,2.45
2022-08-17T10:56:57.116Z,2.33
2022-08-17T10:59:35.781Z,2.10
2022-08-17T11:02:41.601Z,2.30
2022-08-17T11:05:28.705Z,3.35
2022-08-17T11:08:15.425Z,3.58
2022-08-17T11:11:01.262Z,2.50
2022-08-17T11:13:41.201Z,2.22
2022-08-17T11:16:19.802Z,2.25
2022-08-17T11:19:12.993Z,2.20
2022-08-17T11:21:58.360Z,2.95
2022-08-17T11:24:37.091Z,2.55
2022-08-17T11:27:27.357Z,1.92
2022-08-17T11:30:02.089Z,2.55
2022-08-17T11:32:37.854Z,2.55
2022-08-17T11:35:22.845Z,2.47
2022-08-17T11:37:52.329Z,2.50
2022-08-17T11:40:37.463Z,2.00
2022-08-17T11:43:14.269Z,2.75
2022-08-17T11:45:58.496Z,2.10
2022-08-17T11:49:15.310Z,2.15
2022-08-17T11:52:01.156Z,2.10
2022-08-17T11:54:33.853Z,2.70
2022-08-17T11:57:26.676Z,2.58
2022-08-17T12:00:10.651Z,2.33
2022-08-17T12:02:48.858Z,2.65
2022-08-17T12:05:16.947Z,2.47
2022-08-17T12:07:52.048Z,2.15
2022-08-17T12:10:21.733Z,2.10
2022-08-17T12:12:53.237Z,2.22
2022-08-17T12:15:28.785Z,2.42
2022-08-17T12:17:57.186Z,1.98
2022-08-17T12:20:38.104Z,2.47
2022-08-17T12:23:28.435Z,2.53
2022-08-17T12:26:12.549Z,2.25
2022-08-17T12:28:45.440Z,2.55
2022-08-17T12:31:20.662Z,2.38
2022-08-17T12:33:49.962Z,2.80
2022-08-17T12:36:21.395Z,2.50
2022-08-17T12:39:14.128Z,2.20
2022-08-17T12:41:44.939Z,1.75
2022-08-17T12:44:12.254Z,2.20
2022-08-17T12:47:00.450Z,1.95
2022-08-17T12:49:34.317Z,2.20
2022-08-17T12:52:12.383Z,2.65
2022-08-17T12:54:45.392Z,2.90
2022-08-17T12:57:15.769Z,2.30
2022-08-17T12:59:46.293Z,2.97
2022-08-17T13:02:30.292Z,2.10
2022-08-17T13:04:59.559Z,2.58
2022-08-17T13:07:35.195Z,2.63
2022-08-17T13:10:02.629Z,2.08
2022-08-17T13:12:33.013Z,2.90
2022-08-17T13:15:00.152Z,2.33
2022-08-17T13:17:30.953Z,3.78
2022-08-17T13:19:57.748Z,4.75
2022-08-17T13:22:26.322Z,3.10
2022-08-17T13:24:56.384Z,2.00
2022-08-17T13:27:26.350Z,2.30
2022-08-17T13:30:00.468Z,2.40
2022-08-17T13:32:46.567Z,2.60
2022-08-17T13:35:38.915Z,2.65
2022-08-17T13:38:12.917Z,2.20
2022-08-17T13:40:49.284Z,2.00
2022-08-17T13:43:38.272Z,4.28
2022-08-17T13:46:11.664Z,2.17
2022-08-17T13:48:38.387Z,2.30
2022-08-17T13:51:12.879Z,2.85
2022-08-17T13:53:40.164Z,2.55
2022-08-17T13:56:37.655Z,2.28
2022-08-17T13:59:10.186Z,2.22
2022-08-17T14:01:40.979Z,2.03
2022-08-17T14:04:11.194Z,2.22
2022-08-17T14:07:18.222Z,2.55
2022-08-17T14:09:58.330Z,3.13
2022-08-17T14:12:27.233Z,2.10
2022-08-17T14:14:56.365Z,2.17
2022-08-17T14:17:24.610Z,2.28
2022-08-17T14:19:51.620Z,2.30
2022-08-17T14:22:28.292Z,1.70
2022-08-17T14:24:57.789Z,2.22
2022-08-17T14:27:28.055Z,1.90
2022-08-17T14:29:56.416Z,1.80
2022-08-17T14:32:29.526Z,2.33
2022-08-17T14:34:57.807Z,3.60
2022-08-17T14:37:28.030Z,3.42
2022-08-17T14:40:00.150Z,2.53
2022-08-17T14:42:30.382Z,2.35
2022-08-17T14:44:58.787Z,3.22
2022-08-17T14:47:26.650Z,2.30
2022-08-17T14:49:53.466Z,1.90
2022-08-17T14:52:21.879Z,2.47
2022-08-17T14:54:52.922Z,4.22
2022-08-17T14:57:33.224Z,2.35
2022-08-17T15:00:01.676Z,2.15
2022-08-17T15:02:30.682Z,1.90
2022-08-17T15:05:02.729Z,1.85
2022-08-17T15:07:30.728Z,3.85
2022-08-17T15:09:58.787Z,2.50
2022-08-17T15:12:31.987Z,1.75
2022-08-17T15:15:00.724Z,2.95
2022-08-17T15:17:27.383Z,2.25
2022-08-17T15:20:18.476Z,2.30
2022-08-17T15:22:49.379Z,2.40
2022-08-17T15:25:16.771Z,2.65
2022-08-17T15:27:44.080Z,1.85
2022-08-17T15:30:11.787Z,1.98
2022-08-17T15:32:40.930Z,2.50
2022-08-17T15:35:13.951Z,2.22
2022-08-17T15:37:41.515Z,2.40
2022-08-17T15:40:09.663Z,1.90
2022-08-17T15:42:36.237Z,2.13
2022-08-17T15:45:07.930Z,2.03
2022-08-17T15:47:34.551Z,2.47
2022-08-17T15:50:01.156Z,2.10
2022-08-17T15:52:30.100Z,4.20
2022-08-17T15:55:01.230Z,2.15
2022-08-17T15:57:27.906Z,3.15
2022-08-17T15:59:58.626Z,2.92
2022-08-17T16:03:46.346Z,3.03
2022-08-17T16:05:22.098Z,2.60
2022-08-17T16:07:51.690Z,2.20
2022-08-17T16:10:19.371Z,2.60
2022-08-17T16:12:48.345Z,2.28
2022-08-17T16:15:16.290Z,2.17
2022-08-17T16:17:42.937Z,2.13
2022-08-17T16:20:19.973Z,2.42
2022-08-17T16:22:48.511Z,3.88
2022-08-17T16:25:18.836Z,1.90
2022-08-17T16:27:46.673Z,2.72
2022-08-17T16:30:17.629Z,2.30
2022-08-17T16:32:45.350Z,1.98
2022-08-17T16:35:16.195Z,2.13
2022-08-17T16:37:44.645Z,2.17
2022-08-17T16:40:13.929Z,2.08
2022-08-17T16:42:40.939Z,3.17
2022-08-17T16:45:14.713Z,2.35
2022-08-17T16:47:42.059Z,1.75
2022-08-17T16:50:11.721Z,2.50
2022-08-17T16:52:39.584Z,2.50
2022-08-17T16:55:08.267Z,2.28
2022-08-17T16:57:37.556Z,1.77
2022-08-17T17:00:19.395Z,1.98
2022-08-17T17:02:48.222Z,1.70
2022-08-17T17:05:29.655Z,2.33
2022-08-17T17:08:12.865Z,3.47
2022-08-17T17:10:44.438Z,2.08
2022-08-17T17:13:17.618Z,1.77
2022-08-17T17:15:53.566Z,1.95
2022-08-17T17:18:26.466Z,2.40
2022-08-17T17:20:57.289Z,1.85
2022-08-17T17:23:37.464Z,2.63
2022-08-17T17:26:34.324Z,2.75
2022-08-17T17:29:25.297Z,2.03
2022-08-17T17:32:37.827Z,1.58
2022-08-17T17:35:16.461Z,1.75
2022-08-17T17:37:45.005Z,3.08
2022-08-17T17:40:52.255Z,2.05
2022-08-17T17:43:38.147Z,1.85
2022-08-17T17:46:27.176Z,2.13
2022-08-17T17:48:55.215Z,1.70
2022-08-17T17:52:06.440Z,2.40
2022-08-17T17:54:41.110Z,1.75
2022-08-17T17:57:13.666Z,2.20
2022-08-17T18:00:18.600Z,4.68
2022-08-17T18:03:18.947Z,1.77
2022-08-17T18:05:57.670Z,2.22
2022-08-17T18:08:49.306Z,2.42
2022-08-17T18:11:35.044Z,1.85
2022-08-17T18:14:17.847Z,1.75
2022-08-17T18:16:46.432Z,2.47
2022-08-17T18:19:21.150Z,2.20
2022-08-17T18:21:53.551Z,2.00
2022-08-17T18:24:35.982Z,1.80
2022-08-17T18:27:38.235Z,2.30
2022-08-17T18:30:28.916Z,1.70
2022-08-17T18:33:22.303Z,1.88
2022-08-17T18:35:59.229Z,1.90
2022-08-17T18:38:33.911Z,1.63
2022-08-17T18:41:02.117Z,2.30
2022-08-17T18:43:53.051Z,2.55
2022-08-17T18:46:36.784Z,2.30
2022-08-17T18:49:27.734Z,2.00
2022-08-17T18:52:16.016Z,2.40
2022-08-17T18:55:05.907Z,1.88
2022-08-17T18:57:35.763Z,2.28
2022-08-17T19:00:14.723Z,2.10
2022-08-17T19:02:52.130Z,3.53
2022-08-17T19:05:35.698Z,3.88
2022-08-17T19:08:34.135Z,2.10
2022-08-17T19:11:34.056Z,2.72
2022-08-17T19:14:08.127Z,2.03
2022-08-17T19:16:44.843Z,2.60
2022-08-17T19:19:17.324Z,2.90
2022-08-17T19:21:55.491Z,3.33
2022-08-17T19:24:25.409Z,2.33
2022-08-17T19:27:15.757Z,1.90
2022-08-17T19:30:01.730Z,2.97
2022-08-17T19:32:37.771Z,2.30
2022-08-17T19:35:07.434Z,3.05
2022-08-17T19:38:03.113Z,2.28
2022-08-17T19:40:52.117Z,4.35
2022-08-17T19:43:56.153Z,4.57
2022-08-17T19:46:30.308Z,4.45
2022-08-17T19:49:06.084Z,4.18
2022-08-17T19:51:51.229Z,3.83
2022-08-17T19:54:20.937Z,3.88
2022-08-17T19:56:55.849Z,2.83
2022-08-17T19:59:49.426Z,2.58
2022-08-17T20:02:37.370Z,3.35
2022-08-17T20:06:09.137Z,2.20
2022-08-17T20:08:39.991Z,2.03
2022-08-17T20:11:21.161Z,2.63
2022-08-17T20:13:55.046Z,2.45
2022-08-17T20:16:22.990Z,2.42
2022-08-17T20:18:53.621Z,3.20
2022-08-17T20:21:29.114Z,2.38
2022-08-17T20:23:55.578Z,2.42
2022-08-17T20:26:27.451Z,2.20
2022-08-17T20:29:31.953Z,2.55
2022-08-17T20:32:18.846Z,2.50
2022-08-17T20:34:47.279Z,2.78
2022-08-17T20:37:13.721Z,2.70
2022-08-17T20:40:09.469Z,2.58
2022-08-17T20:42:37.152Z,2.40
2022-08-17T20:45:24.192Z,2.55
2022-08-17T20:48:21.625Z,2.67
2022-08-17T20:50:55.974Z,2.47
2022-08-17T20:53:47.547Z,2.40
2022-08-17T20:56:53.769Z,2.47
2022-08-17T20:59:27.538Z,2.67
2022-08-17T21:02:12.459Z,2.55
2022-08-17T21:04:52.332Z,2.58
2022-08-17T21:07:43.533Z,2.38
2022-08-17T21:10:25.641Z,2.38
2022-08-17T21:13:15.418Z,2.45
2022-08-17T21:15:42.185Z,2.50
2022-08-17T21:18:25.983Z,2.58
2022-08-17T21:21:17.601Z,1.98
2022-08-17T21:23:56.646Z,2.30
2022-08-17T21:26:33.045Z,3.38
2022-08-17T21:29:32.444Z,3.33
2022-08-17T21:32:03.361Z,3.72
2022-08-17T21:34:44.839Z,2.40
2022-08-17T21:37:20.381Z,2.70
2022-08-17T21:39:53.104Z,3.50
2022-08-17T21:42:36.154Z,4.00
2022-08-17T21:45:22.602Z,3.85
2022-08-17T21:48:05.551Z,2.70
2022-08-17T21:50:32.329Z,2.20
2022-08-17T21:53:02.428Z,2.42
2022-08-17T21:55:31.390Z,2.70
2022-08-17T21:58:14.521Z,3.10
2022-08-17T22:00:44.109Z,2.88
2022-08-17T22:03:23.766Z,2.47
2022-08-17T22:05:51.566Z,2.92
2022-08-17T22:08:24.700Z,2.60
2022-08-17T22:11:01.061Z,2.40
2022-08-17T22:13:29.675Z,2.58
2022-08-17T22:16:05.906Z,2.85
2022-08-17T22:18:43.460Z,3.17
2022-08-17T22:21:09.967Z,2.45
2022-08-17T22:24:03.036Z,2.70
2022-08-17T22:27:03.477Z,2.60
2022-08-17T22:29:58.896Z,3.00
2022-08-17T22:32:35.365Z,2.72
2022-08-17T22:35:33.164Z,3.28
2022-08-17T22:40:51.121Z,2.58
2022-08-17T22:43:25.999Z,2.20
2022-08-17T22:45:56.139Z,3.33
2022-08-17T22:48:27.474Z,3.03
2022-08-17T22:51:12.574Z,2.80
2022-08-17T22:54:13.101Z,3.47
2022-08-17T22:57:06.813Z,3.55
2022-08-17T22:59:37.291Z,3.22
2022-08-17T23:02:26.779Z,2.85
2022-08-17T23:30:50.456Z,1.92
2022-08-17T23:33:29.902Z,2.70
2022-08-17T23:36:00.038Z,2.90
2022-08-17T23:38:27.651Z,3.10
2022-08-17T23:40:55.314Z,3.03
2022-08-17T23:43:25.152Z,2.67
2022-08-17T23:45:56.216Z,3.22
2022-08-17T23:48:28.417Z,2.88
2022-08-17T23:51:03.995Z,2.95
2022-08-17T23:53:34.571Z,2.92
2022-08-17T23:56:09.091Z,3.17
2022-08-17T23:58:38.455Z,2.92
